Time;durP1;ratioP1;P1;durP2;ratioP2;P2;SDS_P1;SDS_P2;PMS_P1;PMS_P2;Temp;Humidity;BMP_temperature;BMP_pressure;BME280_temperature;BME280_humidity;BME280_pressure;Samples;Min_cycle;Max_cycle;Signal;HPM_P1;HPM_P2
2023/07/30 00:00:00;;;;;;;;;;;;;;;;;;;;;
2023/07/30 00:02:31;;;;;;;49.47;7.35;;;17.20;99.90;;;;;;4976095;28;20159;-76
2023/07/30 00:05:25;;;;;;;;;;;;;;;;;;;;;
2023/07/30 00:07:53;;;;;;;7.45;6.45;;;17.00;99.90;;;;;;4974943;28;20193;-76
2023/07/30 00:10:25;;;;;;;69.78;8.02;;;16.90;99.90;;;;;;4990107;28;20530;-76
2023/07/30 00:13:00;;;;;;;17.38;7.45;;;16.90;99.90;;;;;;4990992;28;20181;-76
2023/07/30 00:15:26;;;;;;;6.95;6.35;;;16.90;99.90;;;;;;4990465;28;20187;-76
2023/07/30 00:18:01;;;;;;;6.75;6.07;;;17.00;99.90;;;;;;4973333;28;20208;-76
2023/07/30 00:20:41;;;;;;;8.30;6.15;;;17.00;99.90;;;;;;4991101;28;20569;-77
2023/07/30 00:23:13;;;;;;;6.55;5.82;;;17.00;99.90;;;;;;4974118;28;20207;-76
2023/07/30 00:26:02;;;;;;;9.80;5.97;;;17.00;99.90;;;;;;4973921;28;20260;-77
2023/07/30 00:31:29;;;;;;;6.20;5.70;;;16.90;99.90;;;;;;4970802;28;20189;-77
2023/07/30 00:34:00;;;;;;;7.70;6.50;;;17.00;99.90;;;;;;4990133;28;20188;-76
2023/07/30 00:36:29;;;;;;;7.00;5.63;;;16.80;99.90;;;;;;4989985;28;20207;-76
2023/07/30 00:38:55;;;;;;;7.25;5.63;;;16.80;99.90;;;;;;4993765;28;20335;-76
2023/07/30 00:41:21;;;;;;;6.75;5.65;;;16.80;99.90;;;;;;4994260;28;20180;-76
2023/07/30 00:43:47;;;;;;;6.22;5.57;;;16.80;99.90;;;;;;4993847;28;20639;-76
2023/07/30 00:46:13;;;;;;;8.18;5.55;;;16.80;99.90;;;;;;4993791;28;20228;-76
2023/07/30 00:48:39;;;;;;;7.45;5.50;;;16.80;99.90;;;;;;4977705;28;20347;-77
2023/07/30 00:51:07;;;;;;;5.47;4.97;;;16.90;99.90;;;;;;4994193;28;20185;-76
2023/07/30 00:53:36;;;;;;;7.30;5.53;;;16.80;99.90;;;;;;4994068;28;20191;-76
2023/07/30 00:56:02;;;;;;;5.63;5.10;;;16.90;99.90;;;;;;4993256;28;20223;-76
2023/07/30 00:58:41;;;;;;;5.53;4.35;;;16.90;99.90;;;;;;4977550;28;20724;-76
2023/07/30 01:22:05;;;;;;;9.48;4.70;;;17.00;99.90;;;;;;4995434;28;20216;-77
2023/07/30 01:24:32;;;;;;;7.97;4.30;;;17.00;99.90;;;;;;4997945;28;20195;-77
2023/07/30 01:28:02;;;;;;;;;;;;;;;;;;;;;
2023/07/30 01:33:46;;;;;;;6.32;4.40;;;17.10;99.90;;;;;;4995632;28;20204;-77
2023/07/30 01:37:01;;;;;;;6.07;4.40;;;17.00;99.90;;;;;;4979386;28;20196;-77
2023/07/30 01:39:28;;;;;;;6.38;4.30;;;17.00;99.90;;;;;;4978733;28;20211;-77
2023/07/30 01:41:54;;;;;;;5.43;4.35;;;16.90;99.90;;;;;;4996634;28;20176;-77
2023/07/30 01:44:29;;;;;;;5.03;4.10;;;16.80;99.90;;;;;;4996985;28;20188;-77
2023/07/30 01:47:41;;;;;;;;;;;;;;;;;;;;;
2023/07/30 01:50:21;;;;;;;6.07;3.88;;;16.80;99.90;;;;;;4996605;28;20187;-77
2023/07/30 01:52:53;;;;;;;7.47;4.22;;;16.70;99.90;;;;;;4995996;28;20238;-77
2023/07/30 01:55:19;;;;;;;10.25;4.80;;;16.70;99.90;;;;;;4996799;28;20184;-77
2023/07/30 01:58:44;;;;;;;;;;;;;;;;;;;;;
2023/07/30 02:02:03;;;;;;;10.02;3.90;;;16.80;99.90;;;;;;4996473;28;20200;-77
2023/07/30 02:04:21;;;;;;;10.95;4.05;;;16.80;99.90;;;;;;4974980;28;20192;-77
2023/07/30 02:07:26;;;;;;;;;;;;;;;;;;;;;
2023/07/30 02:10:15;;;;;;;8.45;4.38;;;16.80;99.90;;;;;;4997733;28;20164;-77
2023/07/30 02:12:50;;;;;;;6.70;4.10;;;16.80;99.90;;;;;;4995575;28;20176;-77
2023/07/30 02:16:09;;;;;;;7.93;4.35;;;16.80;99.90;;;;;;4995897;28;20176;-77
2023/07/30 02:18:49;;;;;;;5.32;3.55;;;16.70;99.90;;;;;;4994105;28;20701;-77
2023/07/30 02:21:24;;;;;;;4.78;4.00;;;16.70;99.90;;;;;;4994947;28;20195;-77
2023/07/30 02:23:50;;;;;;;6.32;3.80;;;16.70;99.90;;;;;;4995532;28;20180;-77
2023/07/30 02:26:19;;;;;;;4.38;3.72;;;16.70;99.90;;;;;;4995155;28;20246;-77
2023/07/30 02:28:46;;;;;;;7.15;3.90;;;16.60;99.90;;;;;;4994889;28;20176;-77
2023/07/30 02:31:24;;;;;;;6.40;3.80;;;16.60;99.90;;;;;;4994866;28;20184;-77
2023/07/30 02:33:50;;;;;;;7.18;3.67;;;16.60;99.90;;;;;;4995329;28;20661;-77
2023/07/30 02:36:19;;;;;;;6.55;3.30;;;16.50;99.90;;;;;;4995182;28;20227;-77
2023/07/30 02:38:45;;;;;;;4.18;3.20;;;16.50;99.90;;;;;;4995480;28;20204;-77
2023/07/30 02:41:14;;;;;;;5.55;3.05;;;16.50;99.90;;;;;;4995313;28;20183;-77
2023/07/30 02:43:40;;;;;;;3.30;3.00;;;16.50;99.90;;;;;;4995104;28;20176;-77
2023/07/30 02:46:06;;;;;;;4.13;3.10;;;16.50;99.90;;;;;;4995436;28;20192;-77
2023/07/30 02:48:35;;;;;;;3.38;3.10;;;16.50;99.90;;;;;;4994812;28;20180;-77
2023/07/30 02:51:01;;;;;;;3.70;2.90;;;16.60;99.90;;;;;;4995315;28;20180;-77
2023/07/30 02:53:27;;;;;;;3.55;2.88;;;16.60;99.90;;;;;;4995654;28;20176;-77
2023/07/30 02:55:53;;;;;;;3.55;3.25;;;16.60;99.90;;;;;;4994943;28;20196;-77
2023/07/30 02:58:32;;;;;;;2.92;2.70;;;16.70;99.90;;;;;;4994454;28;20196;-77
2023/07/30 03:01:09;;;;;;;3.20;3.00;;;16.70;99.90;;;;;;4995052;28;20177;-77
2023/07/30 03:03:45;;;;;;;6.50;2.90;;;16.80;99.90;;;;;;4994976;28;20263;-77
2023/07/30 03:06:10;;;;;;;2.80;2.60;;;16.70;99.90;;;;;;4995117;28;20604;-77
2023/07/30 03:08:39;;;;;;;5.63;3.00;;;16.70;99.90;;;;;;4995337;28;20191;-77
2023/07/30 03:11:05;;;;;;;5.00;2.70;;;16.70;99.90;;;;;;4994656;28;20180;-77
2023/07/30 03:13:31;;;;;;;6.60;3.33;;;16.60;99.90;;;;;;4994721;28;20190;-77
2023/07/30 03:16:38;;;;;;;6.78;3.30;;;16.50;99.90;;;;;;4994157;28;20200;-77
2023/07/30 03:19:18;;;;;;;6.60;3.40;;;16.40;99.90;;;;;;4979715;28;20316;-77
2023/07/30 03:21:44;;;;;;;4.07;3.03;;;16.40;99.90;;;;;;4976461;28;20625;-77
2023/07/30 03:24:16;;;;;;;6.45;3.20;;;16.40;99.90;;;;;;4978379;28;20204;-77
2023/07/30 03:27:40;;;;;;;6.60;2.90;;;16.30;99.90;;;;;;4978291;28;20275;-77
2023/07/30 03:30:27;;;;;;;4.80;3.05;;;16.30;99.90;;;;;;4955520;29;20208;-77
2023/07/30 03:32:56;;;;;;;4.13;2.80;;;16.40;99.90;;;;;;4938845;29;20189;-77
2023/07/30 03:38:16;;;;;;;2.92;2.70;;;16.30;99.90;;;;;;4994305;28;20324;-77
2023/07/30 03:40:42;;;;;;;3.40;3.10;;;16.40;99.90;;;;;;4994216;28;20662;-77
2023/07/30 03:47:11;;;;;;;3.05;2.80;;;16.40;99.90;;;;;;4963673;28;20205;-77
2023/07/30 03:49:41;;;;;;;3.75;2.72;;;16.40;99.90;;;;;;4939434;29;20189;-77
2023/07/30 03:52:14;;;;;;;4.78;2.80;;;16.50;99.90;;;;;;4938471;29;20189;-77
2023/07/30 03:54:45;;;;;;;4.90;2.78;;;16.50;99.90;;;;;;4938975;29;20575;-77
2023/07/30 03:57:18;;;;;;;5.50;3.00;;;16.60;99.90;;;;;;4940130;28;20205;-77
2023/07/30 03:59:53;;;;;;;3.72;2.88;;;16.60;99.90;;;;;;4993589;28;20254;-77
2023/07/30 04:02:38;;;;;;;3.08;2.60;;;16.60;99.90;;;;;;4994156;28;20196;-77
2023/07/30 04:05:06;;;;;;;3.13;2.88;;;16.70;99.90;;;;;;4994407;28;20172;-77
2023/07/30 04:07:33;;;;;;;3.38;3.10;;;16.70;99.90;;;;;;4993251;28;20196;-77
2023/07/30 04:10:51;;;;;;;4.47;2.78;;;16.70;99.90;;;;;;4993832;28;20667;-77
2023/07/30 04:14:14;;;;;;;4.28;3.08;;;16.70;99.90;;;;;;4986990;28;20581;-77
2023/07/30 04:16:50;;;;;;;4.65;2.78;;;16.70;99.90;;;;;;4975947;28;20200;-77
2023/07/30 04:19:24;;;;;;;6.55;3.13;;;16.60;99.90;;;;;;4975908;28;20718;-77
2023/07/30 04:21:51;;;;;;;4.75;3.20;;;16.50;99.90;;;;;;4976621;28;20192;-77
2023/07/30 04:24:17;;;;;;;4.97;3.00;;;16.60;99.90;;;;;;4980332;28;20197;-77
2023/07/30 04:27:07;;;;;;;;;;;;;;;;;;;;;
2023/07/30 04:36:12;;;;;;;3.80;2.97;;;16.70;99.90;;;;;;4993306;28;20212;-77
2023/07/30 04:38:38;;;;;;;3.92;3.30;;;16.80;99.90;;;;;;4993277;28;20303;-77
2023/07/30 04:41:04;;;;;;;4.10;2.75;;;16.80;99.90;;;;;;4993529;28;20207;-77
2023/07/30 04:43:33;;;;;;;5.20;2.88;;;16.90;99.90;;;;;;4994132;28;20299;-77
2023/07/30 04:45:59;;;;;;;9.82;3.00;;;16.90;99.90;;;;;;4993838;28;20675;-77
2023/07/30 04:48:25;;;;;;;3.25;2.95;;;17.00;99.90;;;;;;4994055;28;20307;-77
2023/07/30 04:50:51;;;;;;;6.20;3.08;;;17.00;99.90;;;;;;4993762;28;20263;-77
2023/07/30 04:53:18;;;;;;;3.80;3.00;;;17.10;99.90;;;;;;4993307;28;20200;-77
2023/07/30 04:55:44;;;;;;;6.15;3.00;;;17.10;99.90;;;;;;4993290;28;20212;-77
2023/07/30 04:58:10;;;;;;;3.90;3.17;;;17.20;99.90;;;;;;4992881;28;20204;-77
2023/07/30 05:00:36;;;;;;;5.20;3.50;;;17.10;99.90;;;;;;4993440;28;20219;-77
2023/07/30 05:03:02;;;;;;;4.18;3.28;;;17.20;99.90;;;;;;4993800;28;20180;-77
2023/07/30 05:06:03;;;;;;;6.43;3.30;;;17.30;99.90;;;;;;4993125;28;20183;-77
2023/07/30 05:08:29;;;;;;;4.40;2.90;;;17.40;99.90;;;;;;4993037;28;20184;-77
2023/07/30 05:10:57;;;;;;;5.85;3.08;;;17.60;99.90;;;;;;4993115;28;20669;-77
2023/07/30 05:13:26;;;;;;;5.93;2.90;;;17.80;99.90;;;;;;4993601;28;20181;-77
2023/07/30 05:15:53;;;;;;;6.18;2.83;;;17.80;99.90;;;;;;4993036;28;20207;-77
2023/07/30 05:18:18;;;;;;;4.90;2.95;;;17.80;99.90;;;;;;4993752;28;20235;-77
2023/07/30 05:20:46;;;;;;;5.70;3.10;;;17.90;99.90;;;;;;4993286;28;20199;-77
2023/07/30 05:23:12;;;;;;;8.13;3.47;;;17.80;99.90;;;;;;4992974;28;20546;-77
2023/07/30 05:25:39;;;;;;;7.22;3.40;;;17.70;99.90;;;;;;4996252;28;20218;-77
2023/07/30 05:28:14;;;;;;;5.80;4.65;;;17.60;99.90;;;;;;4997291;28;20229;-77
2023/07/30 05:30:46;;;;;;;8.15;7.35;;;17.60;99.90;;;;;;4996569;28;20267;-77
2023/07/30 05:33:15;;;;;;;5.03;4.57;;;17.60;99.90;;;;;;4997993;28;20187;-76
2023/07/30 05:35:41;;;;;;;4.65;4.20;;;17.60;99.90;;;;;;4996628;28;20176;-77
2023/07/30 05:38:07;;;;;;;4.57;4.00;;;17.60;99.90;;;;;;4996278;28;20191;-76
2023/07/30 05:40:37;;;;;;;5.07;3.83;;;17.90;99.90;;;;;;4996583;28;20176;-77
2023/07/30 05:43:06;;;;;;;5.03;4.63;;;18.10;99.90;;;;;;4996587;28;20188;-76
2023/07/30 05:45:33;;;;;;;4.70;4.30;;;18.20;99.90;;;;;;5005358;23;20206;-76
2023/07/30 05:48:23;;;;;;;10.43;8.70;;;18.10;99.90;;;;;;4977976;28;20212;-77
2023/07/30 05:50:53;;;;;;;10.13;8.70;;;18.00;99.90;;;;;;4978357;28;20547;-77
2023/07/30 05:53:25;;;;;;;7.93;6.28;;;18.30;99.90;;;;;;4977521;28;20181;-77
2023/07/30 05:55:54;;;;;;;4.78;4.38;;;18.30;99.90;;;;;;4976403;28;20201;-77
2023/07/30 05:58:26;;;;;;;5.50;5.00;;;18.20;99.90;;;;;;4976551;28;20259;-77
2023/07/30 06:01:20;;;;;;;5.32;4.82;;;18.10;99.90;;;;;;4976841;28;20180;-77
2023/07/30 06:04:13;;;;;;;5.43;4.10;;;18.20;99.90;;;;;;4977354;28;20185;-77
2023/07/30 06:07:02;;;;;;;5.85;3.88;;;18.20;99.90;;;;;;4972887;28;20263;-77
2023/07/30 06:09:47;;;;;;;3.60;3.33;;;18.20;99.90;;;;;;4976101;28;20307;-77
2023/07/30 06:12:35;;;;;;;;;;;;;;;;;;;;;
2023/07/30 06:15:16;;;;;;;3.63;3.30;;;18.70;99.90;;;;;;4977367;28;20267;-77
2023/07/30 06:18:16;;;;;;;;;;;;;;;;;;;;;
2023/07/30 06:20:54;;;;;;;4.82;3.90;;;19.00;99.90;;;;;;4975227;28;20193;-77
2023/07/30 06:23:42;;;;;;;5.70;3.70;;;19.10;99.90;;;;;;4976689;28;20169;-77
2023/07/30 06:27:01;;;;;;;5.35;4.10;;;19.20;99.90;;;;;;4975816;28;20212;-77
2023/07/30 06:30:11;;;;;;;4.10;3.70;;;19.30;99.90;;;;;;4975111;28;20189;-77
2023/07/30 06:36:42;;;;;;;3.50;3.20;;;19.50;99.90;;;;;;4898598;29;20204;-77
2023/07/30 06:39:21;;;;;;;3.88;3.10;;;19.50;99.90;;;;;;4882512;29;20224;-77
2023/07/30 06:42:21;;;;;;;;;;;;;;;;;;;;;
2023/07/30 06:44:50;;;;;;;3.58;3.25;;;19.90;99.90;;;;;;4898661;29;20207;-77
2023/07/30 06:47:22;;;;;;;3.40;3.08;;;20.00;99.90;;;;;;4975211;28;20209;-77
2023/07/30 06:50:09;;;;;;;3.80;3.33;;;20.30;99.90;;;;;;4976571;28;20251;-77
2023/07/30 06:52:59;;;;;;;9.68;3.33;;;20.50;99.90;;;;;;4975676;28;20550;-77
2023/07/30 06:55:59;;;;;;;3.28;2.97;;;20.60;99.90;;;;;;4975761;28;20176;-77
2023/07/30 06:58:32;;;;;;;2.83;2.58;;;20.60;99.90;;;;;;4975253;28;20184;-77
2023/07/30 07:01:07;;;;;;;3.72;2.97;;;20.70;99.90;;;;;;4975301;28;20244;-78
2023/07/30 07:04:24;;;;;;;5.05;2.70;;;20.60;99.90;;;;;;4976017;28;20177;-77
2023/07/30 07:07:30;;;;;;;;;;;;;;;;;;;;;
2023/07/30 07:10:53;;;;;;;2.95;2.53;;;20.70;99.90;;;;;;4966880;28;20188;-77
2023/07/30 07:13:32;;;;;;;;;;;;;;;;;;;;;
2023/07/30 07:20:19;;;;;;;2.60;2.40;;;21.40;99.90;;;;;;4897686;29;20211;-77
2023/07/30 07:23:12;;;;;;;7.70;2.55;;;21.70;99.90;;;;;;4878110;29;20621;-77
2023/07/30 07:26:03;;;;;;;;;;;;;;;;;;;;;
2023/07/30 07:29:02;;;;;;;2.40;2.20;;;22.40;99.90;;;;;;4897548;29;20172;-77
2023/07/30 07:35:13;;;;;;;;;;;;;;;;;;;;;
2023/07/30 07:38:06;;;;;;;;;;;;;;;;;;;;;
2023/07/30 07:40:44;;;;;;;2.20;2.10;;;22.60;99.90;;;;;;4916102;29;20205;-77
